Time;durP1;ratioP1;P1;durP2;ratioP2;P2;SDS_P1;SDS_P2;PMS_P1;PMS_P2;Temp;Humidity;BMP_temperature;BMP_pressure;BME280_temperature;BME280_humidity;BME280_pressure;Samples;Min_cycle;Max_cycle;Signal;HPM_P1;HPM_P2
2021/07/09 00:01:54;;;;;;;;;;;25.70;51.40;;;;;;5030492;28;20429;-58
2021/07/09 00:04:21;;;;;;;1.77;1.45;;;25.60;51.30;;;;;;5024804;28;19940;-56
2021/07/09 00:06:47;;;;;;;2.00;1.65;;;25.60;51.30;;;;;;5035099;28;20026;-57
2021/07/09 00:09:13;;;;;;;1.80;1.30;;;25.60;51.30;;;;;;5017871;28;20044;-57
2021/07/09 00:11:41;;;;;;;1.67;1.58;;;25.60;51.30;;;;;;5014449;28;20034;-60
2021/07/09 00:14:09;;;;;;;2.20;1.70;;;25.60;51.20;;;;;;5017214;28;20026;-60
2021/07/09 00:16:36;;;;;;;1.67;1.40;;;25.60;51.20;;;;;;5018695;28;20030;-57
2021/07/09 00:19:04;;;;;;;2.33;1.58;;;25.60;51.20;;;;;;5015650;28;20038;-51
2021/07/09 00:21:32;;;;;;;1.60;1.48;;;25.60;51.20;;;;;;5018362;28;20018;-56
2021/07/09 00:23:58;;;;;;;1.92;1.60;;;25.60;51.20;;;;;;5018112;28;20376;-57
2021/07/09 00:26:24;;;;;;;1.80;1.63;;;25.60;51.10;;;;;;5021076;28;20441;-57
2021/07/09 00:28:49;;;;;;;1.70;1.60;;;25.60;51.10;;;;;;5015386;28;20041;-59
2021/07/09 00:31:15;;;;;;;2.05;1.58;;;25.60;51.10;;;;;;5023687;28;20354;-56
2021/07/09 00:33:41;;;;;;;2.42;1.85;;;25.60;51.10;;;;;;5023706;28;20493;-53
2021/07/09 00:36:07;;;;;;;2.20;1.80;;;25.60;51.10;;;;;;5019729;28;20120;-59
2021/07/09 00:38:33;;;;;;;1.92;1.50;;;25.60;51.10;;;;;;5016425;28;20045;-58
2021/07/09 00:40:58;;;;;;;1.58;1.48;;;25.60;51.00;;;;;;5018843;28;20029;-55
2021/07/09 00:43:24;;;;;;;1.58;1.40;;;25.60;51.00;;;;;;5021067;28;20095;-59
2021/07/09 00:45:50;;;;;;;2.50;1.60;;;25.60;51.00;;;;;;5028842;28;20029;-59
2021/07/09 00:48:16;;;;;;;1.50;1.38;;;25.60;51.00;;;;;;5023161;28;20030;-60
2021/07/09 00:50:43;;;;;;;2.03;1.70;;;25.50;50.90;;;;;;5027618;28;20512;-58
2021/07/09 00:53:09;;;;;;;2.10;1.90;;;25.60;50.90;;;;;;5016056;28;20442;-58
2021/07/09 00:55:35;;;;;;;1.77;1.63;;;25.60;50.90;;;;;;5019420;28;20125;-56
2021/07/09 00:58:01;;;;;;;2.15;1.92;;;25.50;50.80;;;;;;5021714;28;20053;-59
2021/07/09 01:00:29;;;;;;;1.90;1.58;;;25.60;50.80;;;;;;5027803;28;20044;-54
2021/07/09 01:02:55;;;;;;;1.95;1.50;;;25.50;50.70;;;;;;5024014;28;20158;-60
2021/07/09 01:05:21;;;;;;;1.73;1.50;;;25.50;50.70;;;;;;5026136;28;20041;-55
2021/07/09 01:07:48;;;;;;;3.00;1.55;;;25.50;50.70;;;;;;5031483;28;20036;-57
2021/07/09 01:10:19;;;;;;;1.80;1.40;;;25.50;50.70;;;;;;5027195;28;20065;-58
2021/07/09 01:12:46;;;;;;;2.08;1.65;;;25.50;50.70;;;;;;5026043;28;20030;-55
2021/07/09 01:15:14;;;;;;;2.25;1.58;;;25.50;50.70;;;;;;5021188;28;20025;-58
2021/07/09 01:17:40;;;;;;;1.48;1.35;;;25.50;50.60;;;;;;5021500;28;20026;-57
2021/07/09 01:20:09;;;;;;;1.83;1.67;;;25.50;50.60;;;;;;5027232;28;20037;-59
2021/07/09 01:22:38;;;;;;;1.70;1.60;;;25.50;50.60;;;;;;5020087;28;20038;-59
2021/07/09 01:25:10;;;;;;;2.38;1.48;;;25.50;50.60;;;;;;5021848;28;20022;-58
2021/07/09 01:27:38;;;;;;;2.20;2.00;;;25.50;50.60;;;;;;5020038;28;20049;-57
2021/07/09 01:30:10;;;;;;;1.50;1.40;;;25.40;50.50;;;;;;5028861;28;20433;-58
2021/07/09 01:32:36;;;;;;;1.90;1.70;;;25.50;50.50;;;;;;5027976;28;20029;-59
2021/07/09 01:35:03;;;;;;;1.80;1.70;;;25.40;50.40;;;;;;5023455;28;20048;-60
2021/07/09 01:37:29;;;;;;;1.63;1.52;;;25.40;50.40;;;;;;5024770;28;20441;-55
2021/07/09 01:39:54;;;;;;;2.08;1.77;;;25.40;50.40;;;;;;5029151;28;20045;-55
2021/07/09 01:42:20;;;;;;;2.25;1.60;;;25.40;51.00;;;;;;5022211;28;20098;-59
2021/07/09 01:44:46;;;;;;;1.55;1.45;;;25.40;50.30;;;;;;5027319;28;20033;-58
2021/07/09 01:47:12;;;;;;;2.08;1.63;;;25.40;50.30;;;;;;5020677;28;20484;-57
2021/07/09 01:49:51;;;;;;;1.50;1.35;;;25.40;50.30;;;;;;5025911;28;20037;-55
2021/07/09 01:52:18;;;;;;;1.80;1.60;;;25.40;50.20;;;;;;5024586;28;20412;-57
2021/07/09 01:54:44;;;;;;;2.35;1.77;;;25.40;50.20;;;;;;5019554;28;20088;-58
2021/07/09 01:57:11;;;;;;;1.83;1.50;;;25.40;50.20;;;;;;5022708;28;20030;-57
2021/07/09 01:59:38;;;;;;;2.00;1.80;;;25.40;50.40;;;;;;5021920;28;20036;-59
2021/07/09 02:02:05;;;;;;;1.83;1.48;;;25.40;50.20;;;;;;5019952;28;20087;-56
2021/07/09 02:04:30;;;;;;;1.60;1.42;;;25.30;50.20;;;;;;5014284;28;20025;-57
2021/07/09 02:06:56;;;;;;;2.22;1.60;;;25.30;50.20;;;;;;5017064;28;20022;-57
2021/07/09 02:09:22;;;;;;;1.98;1.77;;;25.30;50.10;;;;;;5021124;28;20053;-59
2021/07/09 02:11:48;;;;;;;2.08;1.65;;;25.30;50.10;;;;;;5030910;28;20456;-57
2021/07/09 02:14:13;;;;;;;2.10;1.90;;;25.30;50.00;;;;;;5016151;28;20064;-60
2021/07/09 02:16:40;;;;;;;1.60;1.50;;;25.30;50.00;;;;;;5017893;28;20033;-57
2021/07/09 02:19:07;;;;;;;1.77;1.67;;;25.30;50.00;;;;;;5017836;28;20061;-59
2021/07/09 02:21:33;;;;;;;1.67;1.58;;;25.30;50.00;;;;;;5031045;28;20036;-60
2021/07/09 02:23:59;;;;;;;1.70;1.60;;;25.30;49.90;;;;;;5021020;28;20033;-58
2021/07/09 02:26:25;;;;;;;1.63;1.40;;;25.30;49.90;;;;;;5023592;28;20099;-59
2021/07/09 02:28:51;;;;;;;1.60;1.50;;;25.30;49.90;;;;;;5024255;28;20088;-59
2021/07/09 02:31:17;;;;;;;2.63;1.70;;;25.30;49.80;;;;;;5028041;28;20029;-59
2021/07/09 02:33:43;;;;;;;1.83;1.58;;;25.30;49.80;;;;;;5027703;28;20037;-59
2021/07/09 02:36:09;;;;;;;1.58;1.48;;;25.30;49.80;;;;;;5020363;28;20079;-60
2021/07/09 02:38:35;;;;;;;1.83;1.63;;;25.30;49.90;;;;;;5030425;28;20029;-56
2021/07/09 02:41:01;;;;;;;2.15;1.95;;;25.30;49.90;;;;;;5016319;28;20034;-58
2021/07/09 02:43:27;;;;;;;2.03;1.55;;;25.30;49.90;;;;;;5026389;28;20046;-60
2021/07/09 02:45:53;;;;;;;2.00;1.60;;;25.30;49.90;;;;;;5028762;28;20035;-58
2021/07/09 02:48:19;;;;;;;1.55;1.42;;;25.30;49.90;;;;;;5020443;28;20030;-56
2021/07/09 02:50:46;;;;;;;1.80;1.58;;;25.20;49.80;;;;;;5022238;28;20026;-60
2021/07/09 02:53:12;;;;;;;1.40;1.30;;;25.20;49.90;;;;;;5015544;28;20350;-59
2021/07/09 02:55:38;;;;;;;2.30;1.70;;;25.20;50.00;;;;;;5015429;28;20488;-55
2021/07/09 02:58:04;;;;;;;2.15;1.95;;;25.20;50.00;;;;;;5021876;28;20022;-61
2021/07/09 03:00:30;;;;;;;2.33;1.90;;;25.20;50.10;;;;;;5030372;28;20053;-57
2021/07/09 03:02:56;;;;;;;2.65;1.95;;;25.20;50.10;;;;;;5020233;28;20043;-60
2021/07/09 03:05:22;;;;;;;2.08;1.67;;;25.20;50.10;;;;;;5017777;28;20357;-55
2021/07/09 03:07:47;;;;;;;3.17;2.03;;;25.20;50.20;;;;;;5020807;28;20036;-59
2021/07/09 03:10:14;;;;;;;1.85;1.67;;;25.20;50.20;;;;;;5020592;28;20139;-55
2021/07/09 03:12:40;;;;;;;3.17;2.10;;;25.20;50.20;;;;;;5017948;28;20044;-59
2021/07/09 03:15:09;;;;;;;1.95;1.70;;;25.20;50.30;;;;;;5026730;28;20037;-57
2021/07/09 03:17:35;;;;;;;1.75;1.65;;;25.20;50.30;;;;;;5023730;28;20083;-54
2021/07/09 03:20:01;;;;;;;1.83;1.60;;;25.20;50.30;;;;;;5023819;28;20037;-58
2021/07/09 03:22:27;;;;;;;1.98;1.73;;;25.10;50.30;;;;;;5019510;28;20037;-58
2021/07/09 03:24:53;;;;;;;1.77;1.63;;;25.10;50.40;;;;;;5023910;28;20422;-57
2021/07/09 03:27:19;;;;;;;2.00;1.80;;;25.10;50.30;;;;;;5016184;28;20073;-58
2021/07/09 03:29:44;;;;;;;2.60;1.77;;;25.10;50.40;;;;;;5031924;28;20029;-60
2021/07/09 03:32:10;;;;;;;1.88;1.63;;;25.10;50.40;;;;;;5030809;28;20480;-56
2021/07/09 03:34:37;;;;;;;2.08;1.83;;;25.10;50.40;;;;;;5018749;28;20430;-56
2021/07/09 03:37:03;;;;;;;2.00;1.80;;;25.10;50.40;;;;;;5019398;28;20346;-58
2021/07/09 03:39:29;;;;;;;2.20;1.88;;;25.10;50.40;;;;;;5019642;28;20026;-57
2021/07/09 03:41:54;;;;;;;2.42;1.70;;;25.10;51.10;;;;;;5021890;28;20469;-56
2021/07/09 03:44:20;;;;;;;2.00;1.70;;;25.10;50.40;;;;;;5024390;28;20025;-58
2021/07/09 03:46:46;;;;;;;1.95;1.67;;;25.10;50.40;;;;;;5029035;28;20044;-60
2021/07/09 03:49:12;;;;;;;1.50;1.40;;;25.10;50.40;;;;;;5022452;28;20022;-59
2021/07/09 03:51:39;;;;;;;2.05;1.67;;;25.10;50.50;;;;;;5026686;28;20460;-59
2021/07/09 03:54:05;;;;;;;2.58;1.95;;;25.10;50.40;;;;;;5021675;28;20033;-59
2021/07/09 03:56:31;;;;;;;2.22;1.77;;;25.10;50.40;;;;;;5016016;28;20025;-57
2021/07/09 03:59:01;;;;;;;2.03;1.80;;;25.00;50.40;;;;;;5019845;28;20018;-58
2021/07/09 04:01:27;;;;;;;2.42;2.00;;;25.00;50.40;;;;;;5016511;28;20041;-54
2021/07/09 04:03:53;;;;;;;2.10;1.75;;;25.00;50.40;;;;;;5030407;28;20036;-56
2021/07/09 04:06:18;;;;;;;2.08;1.88;;;25.00;50.40;;;;;;5022720;28;20057;-57
2021/07/09 04:08:45;;;;;;;2.17;1.70;;;25.00;50.40;;;;;;5025143;28;20030;-56
2021/07/09 04:11:11;;;;;;;2.05;1.75;;;25.00;50.40;;;;;;5024451;28;20333;-55
2021/07/09 04:13:37;;;;;;;2.05;1.65;;;25.00;50.50;;;;;;5017373;28;20353;-58
2021/07/09 04:16:03;;;;;;;2.65;1.90;;;25.00;50.40;;;;;;5015557;28;20099;-57
2021/07/09 04:18:28;;;;;;;1.83;1.73;;;25.00;50.40;;;;;;5016962;28;20025;-55
2021/07/09 04:20:54;;;;;;;1.90;1.73;;;25.00;50.40;;;;;;5021128;28;20053;-57
2021/07/09 04:23:20;;;;;;;1.85;1.63;;;25.00;50.40;;;;;;5019858;28;20073;-56
2021/07/09 04:25:46;;;;;;;1.85;1.70;;;25.00;50.50;;;;;;5015839;28;20601;-58
2021/07/09 04:28:12;;;;;;;2.85;1.80;;;25.00;50.40;;;;;;5021426;28;20045;-59
2021/07/09 04:30:38;;;;;;;1.60;1.50;;;25.00;50.40;;;;;;5021405;28;20025;-59
2021/07/09 04:33:03;;;;;;;2.03;1.77;;;25.00;50.40;;;;;;5022798;28;20041;-57
2021/07/09 04:35:29;;;;;;;2.05;1.70;;;25.00;50.40;;;;;;5029996;28;20022;-58
2021/07/09 04:37:55;;;;;;;1.88;1.60;;;25.00;50.50;;;;;;5037331;28;20425;-56
2021/07/09 04:40:21;;;;;;;2.22;1.90;;;25.00;50.50;;;;;;5033696;28;20063;-55
2021/07/09 04:42:47;;;;;;;2.20;2.00;;;25.10;50.50;;;;;;5028155;28;20046;-54
2021/07/09 04:45:13;;;;;;;2.20;2.00;;;25.00;50.40;;;;;;5035165;28;20029;-57
2021/07/09 04:47:39;;;;;;;2.35;1.70;;;25.10;50.40;;;;;;5030793;28;20029;-58
2021/07/09 04:50:06;;;;;;;2.67;2.15;;;25.10;50.40;;;;;;5028413;28;20145;-56
2021/07/09 04:52:31;;;;;;;2.17;1.67;;;25.10;50.40;;;;;;5022244;28;20180;-59
2021/07/09 04:54:57;;;;;;;2.33;1.67;;;25.10;50.30;;;;;;5025312;28;20120;-53
2021/07/09 04:57:23;;;;;;;2.33;1.90;;;25.10;50.30;;;;;;5026673;28;20212;-54
2021/07/09 04:59:49;;;;;;;1.85;1.75;;;25.10;50.30;;;;;;5030964;28;20026;-57
2021/07/09 05:02:15;;;;;;;2.15;1.83;;;25.10;50.30;;;;;;5034082;28;20116;-57
2021/07/09 05:04:40;;;;;;;2.45;2.20;;;25.10;50.20;;;;;;5033642;28;20037;-58
2021/07/09 05:07:06;;;;;;;2.13;1.92;;;25.10;50.20;;;;;;5023878;28;20030;-54
2021/07/09 05:09:32;;;;;;;3.15;2.00;;;25.10;50.20;;;;;;5026010;28;20052;-57
2021/07/09 05:11:58;;;;;;;2.30;2.10;;;25.10;50.20;;;;;;5027797;28;20044;-59
2021/07/09 05:14:23;;;;;;;2.67;2.03;;;25.10;50.20;;;;;;5021884;28;20076;-57
2021/07/09 05:16:49;;;;;;;2.72;1.95;;;25.10;50.20;;;;;;5026679;28;20445;-54
2021/07/09 05:19:15;;;;;;;2.53;2.03;;;25.10;50.20;;;;;;5035084;28;20038;-58
2021/07/09 05:21:41;;;;;;;2.30;2.10;;;25.10;50.20;;;;;;5027170;28;20033;-54
2021/07/09 05:24:10;;;;;;;2.28;2.05;;;25.10;50.10;;;;;;5020474;28;20053;-57
2021/07/09 05:26:36;;;;;;;2.17;1.98;;;25.10;50.10;;;;;;5022265;28;20049;-57
2021/07/09 05:29:02;;;;;;;2.20;2.00;;;25.10;50.10;;;;;;5023403;28;20079;-57
2021/07/09 05:31:29;;;;;;;2.83;1.90;;;25.10;50.10;;;;;;5026499;28;20099;-53
2021/07/09 05:33:55;;;;;;;2.47;2.00;;;25.10;50.00;;;;;;5020047;28;20037;-52
2021/07/09 05:36:21;;;;;;;3.17;2.00;;;25.10;50.00;;;;;;5022830;28;20025;-57
2021/07/09 05:38:48;;;;;;;3.35;2.20;;;25.10;50.00;;;;;;5024417;28;20061;-59
2021/07/09 05:41:14;;;;;;;2.03;1.83;;;25.10;50.00;;;;;;5021928;28;20021;-55
2021/07/09 05:43:42;;;;;;;2.08;1.88;;;25.10;50.00;;;;;;5025331;28;20048;-56
2021/07/09 05:46:08;;;;;;;2.70;1.80;;;25.10;50.00;;;;;;5021890;28;20156;-55
2021/07/09 05:48:34;;;;;;;1.80;1.63;;;25.10;50.00;;;;;;5018156;28;20029;-55
2021/07/09 05:51:00;;;;;;;2.97;1.92;;;25.10;50.00;;;;;;5022813;28;20104;-56
2021/07/09 05:53:25;;;;;;;1.88;1.75;;;25.10;50.00;;;;;;5026059;28;20326;-59
2021/07/09 05:55:51;;;;;;;2.20;1.80;;;25.10;50.00;;;;;;5027060;28;20037;-59
2021/07/09 05:58:18;;;;;;;2.13;1.92;;;25.10;50.00;;;;;;5020558;28;20026;-59
2021/07/09 06:00:44;;;;;;;2.67;1.90;;;25.10;50.00;;;;;;5018695;28;20022;-57
2021/07/09 06:03:10;;;;;;;2.47;1.95;;;25.10;50.10;;;;;;5026211;28;20096;-59
2021/07/09 06:05:36;;;;;;;3.88;2.58;;;25.10;50.10;;;;;;5021588;28;20468;-57
2021/07/09 06:08:06;;;;;;;2.53;2.33;;;25.10;50.20;;;;;;5019928;28;20121;-59
2021/07/09 06:10:33;;;;;;;2.20;2.00;;;25.10;50.10;;;;;;5020625;28;20109;-56
2021/07/09 06:12:59;;;;;;;2.40;2.03;;;25.10;50.10;;;;;;5021090;28;20022;-58
2021/07/09 06:15:26;;;;;;;1.77;1.63;;;25.10;50.10;;;;;;5016051;28;20040;-58
2021/07/09 06:17:51;;;;;;;2.05;1.83;;;25.10;50.70;;;;;;5028652;28;20100;-59
2021/07/09 06:20:18;;;;;;;3.05;1.80;;;25.10;50.00;;;;;;5023590;28;20407;-56
2021/07/09 06:22:46;;;;;;;1.75;1.65;;;25.10;50.00;;;;;;5029826;28;20669;-56
2021/07/09 06:25:13;;;;;;;1.77;1.67;;;25.10;49.90;;;;;;5027165;28;20025;-56
2021/07/09 06:27:39;;;;;;;1.70;1.60;;;25.10;49.90;;;;;;5026351;28;20120;-59
2021/07/09 06:30:06;;;;;;;1.70;1.50;;;25.10;49.80;;;;;;5023602;28;20040;-51
2021/07/09 06:32:32;;;;;;;2.00;1.83;;;25.10;49.70;;;;;;5028595;28;20053;-57
2021/07/09 06:34:57;;;;;;;1.50;1.30;;;25.10;49.70;;;;;;5014798;28;20060;-54
2021/07/09 06:37:24;;;;;;;1.63;1.38;;;25.10;49.60;;;;;;5027715;28;20429;-56
2021/07/09 06:39:50;;;;;;;1.55;1.30;;;25.10;49.50;;;;;;5018924;28;20052;-57
2021/07/09 06:42:16;;;;;;;1.70;1.15;;;25.20;49.50;;;;;;5017423;28;20464;-57
2021/07/09 06:44:42;;;;;;;2.72;1.45;;;25.20;49.50;;;;;;5027335;28;20026;-58
2021/07/09 06:47:08;;;;;;;1.30;1.20;;;25.20;49.40;;;;;;5021547;28;20467;-55
2021/07/09 06:49:33;;;;;;;1.88;1.58;;;25.10;49.30;;;;;;5019767;28;20072;-55
2021/07/09 06:51:59;;;;;;;1.80;1.20;;;25.20;49.30;;;;;;5027938;28;20030;-60
2021/07/09 06:54:25;;;;;;;1.75;1.27;;;25.20;49.10;;;;;;5021982;28;20034;-51
2021/07/09 06:56:51;;;;;;;2.00;1.40;;;25.20;49.10;;;;;;5020076;28;20030;-57
2021/07/09 06:59:16;;;;;;;1.73;1.50;;;25.20;49.00;;;;;;5022209;28;20026;-59
2021/07/09 07:01:42;;;;;;;1.63;1.52;;;25.20;48.90;;;;;;5027600;28;20045;-61
2021/07/09 07:04:09;;;;;;;1.35;1.13;;;25.20;48.80;;;;;;5025797;28;20041;-60
2021/07/09 07:06:36;;;;;;;1.55;1.20;;;25.20;48.80;;;;;;5026241;28;20443;-55
2021/07/09 07:09:03;;;;;;;1.38;1.27;;;25.20;48.80;;;;;;5032491;28;20030;-56
2021/07/09 07:11:28;;;;;;;2.22;1.40;;;25.20;48.70;;;;;;5022279;28;20026;-56
2021/07/09 07:13:54;;;;;;;1.58;1.48;;;25.20;48.60;;;;;;5020686;28;20076;-55
2021/07/09 07:16:20;;;;;;;1.30;1.20;;;25.20;48.50;;;;;;5018570;28;20033;-54
2021/07/09 07:18:46;;;;;;;1.25;1.15;;;25.20;48.50;;;;;;5022827;28;20029;-54
2021/07/09 07:21:11;;;;;;;1.48;1.02;;;25.20;48.50;;;;;;5016360;28;20025;-59
2021/07/09 07:23:37;;;;;;;1.17;1.08;;;25.20;48.40;;;;;;5026624;28;20390;-56
2021/07/09 07:26:03;;;;;;;1.55;1.33;;;25.30;48.90;;;;;;5025468;28;20052;-56
2021/07/09 07:28:29;;;;;;;1.77;1.27;;;25.20;48.20;;;;;;5014852;28;20076;-59
2021/07/09 07:30:55;;;;;;;1.30;1.08;;;25.30;48.20;;;;;;5017797;28;20113;-55
2021/07/09 07:33:20;;;;;;;1.40;1.10;;;25.30;48.10;;;;;;5019698;28;20342;-56
2021/07/09 07:35:46;;;;;;;0.98;0.88;;;25.30;48.00;;;;;;5018559;28;20030;-56
2021/07/09 07:38:12;;;;;;;1.20;1.10;;;25.30;48.00;;;;;;5001152;28;20037;-53
2021/07/09 07:40:38;;;;;;;1.13;0.98;;;25.30;47.90;;;;;;5013982;28;20025;-58
2021/07/09 07:43:05;;;;;;;1.20;1.10;;;25.30;47.90;;;;;;5023403;28;20042;-57
2021/07/09 07:45:32;;;;;;;1.38;1.20;;;25.30;47.80;;;;;;5024154;28;20022;-54
2021/07/09 07:47:58;;;;;;;1.67;1.35;;;25.30;47.80;;;;;;5027293;28;20110;-54
2021/07/09 07:50:25;;;;;;;1.23;1.10;;;25.30;47.70;;;;;;5003973;28;20065;-54
2021/07/09 07:52:52;;;;;;;1.42;1.20;;;25.30;47.70;;;;;;5025373;28;20030;-58
2021/07/09 07:55:17;;;;;;;1.40;0.98;;;25.30;47.60;;;;;;5020394;28;20073;-57
2021/07/09 07:57:44;;;;;;;1.40;1.20;;;25.30;47.50;;;;;;5024167;28;20069;-57
2021/07/09 08:00:11;;;;;;;1.17;0.98;;;25.30;47.40;;;;;;5015983;28;20030;-56
2021/07/09 08:02:41;;;;;;;1.70;1.20;;;25.30;47.40;;;;;;5038942;28;20351;-56
2021/07/09 08:05:08;;;;;;;1.30;0.85;;;25.30;47.30;;;;;;5023506;28;20131;-54
2021/07/09 08:07:34;;;;;;;1.20;1.10;;;25.30;47.30;;;;;;5027872;28;20017;-59
2021/07/09 08:10:01;;;;;;;1.00;0.90;;;25.30;47.20;;;;;;5022491;28;20487;-55
2021/07/09 08:12:28;;;;;;;1.33;1.08;;;25.30;47.20;;;;;;5023901;28;20037;-56
2021/07/09 08:14:53;;;;;;;1.08;0.95;;;25.30;47.10;;;;;;5023171;28;20100;-58
2021/07/09 08:17:19;;;;;;;0.70;0.70;;;25.30;47.00;;;;;;5022360;28;20232;-59
2021/07/09 08:19:45;;;;;;;1.40;1.00;;;25.30;46.80;;;;;;5022122;28;20030;-55
2021/07/09 08:22:15;;;;;;;1.85;1.00;;;25.30;46.70;;;;;;5025177;28;20133;-54
2021/07/09 08:24:41;;;;;;;1.42;0.90;;;25.40;46.60;;;;;;5021673;28;20314;-57
2021/07/09 08:27:07;;;;;;;1.70;1.00;;;25.40;46.50;;;;;;5025078;28;20052;-57
2021/07/09 08:29:33;;;;;;;1.20;0.80;;;25.40;46.50;;;;;;5030910;28;20040;-58
2021/07/09 08:31:59;;;;;;;1.45;1.10;;;25.40;46.40;;;;;;5014303;28;20080;-57
2021/07/09 08:34:25;;;;;;;1.45;1.00;;;25.40;46.30;;;;;;5025417;28;20029;-57
2021/07/09 08:36:51;;;;;;;1.00;0.90;;;25.40;46.20;;;;;;5027648;28;20317;-57
2021/07/09 08:39:17;;;;;;;1.40;0.90;;;25.40;46.00;;;;;;5027792;28;20368;-58
2021/07/09 08:41:44;;;;;;;1.00;0.90;;;25.40;45.90;;;;;;5024744;28;20035;-58
2021/07/09 08:44:11;;;;;;;1.20;1.10;;;25.40;45.90;;;;;;5026146;28;20112;-56
2021/07/09 08:46:38;;;;;;;1.10;0.90;;;25.40;45.90;;;;;;5019077;28;20038;-55
2021/07/09 08:49:07;;;;;;;1.65;1.10;;;25.40;45.90;;;;;;5019183;28;20040;-55
2021/07/09 08:51:34;;;;;;;1.35;1.25;;;25.40;45.90;;;;;;5026060;28;20041;-54
2021/07/09 08:54:00;;;;;;;1.70;1.30;;;25.40;46.20;;;;;;5029190;28;20025;-52
2021/07/09 08:56:26;;;;;;;1.77;1.00;;;25.40;45.90;;;;;;5021158;28;20048;-55
2021/07/09 08:58:52;;;;;;;0.90;0.77;;;25.40;45.90;;;;;;5016919;28;20033;-57
2021/07/09 09:01:17;;;;;;;3.15;0.98;;;25.40;45.90;;;;;;5021383;28;20033;-57
2021/07/09 09:03:43;;;;;;;1.00;0.90;;;25.40;45.90;;;;;;5021466;28;20042;-62
2021/07/09 09:06:16;;;;;;;1.33;1.10;;;25.40;46.00;;;;;;5017903;28;20041;-63
2021/07/09 09:08:42;;;;;;;1.15;1.00;;;25.40;46.00;;;;;;5021358;28;20076;-63
2021/07/09 09:11:08;;;;;;;1.30;1.08;;;25.50;46.70;;;;;;5013492;28;20026;-58
2021/07/09 09:13:36;;;;;;;1.17;1.08;;;25.50;46.10;;;;;;5013945;28;20026;-61
2021/07/09 09:16:10;;;;;;;1.10;0.90;;;25.50;46.00;;;;;;5023767;28;20026;-57
2021/07/09 09:18:40;;;;;;;1.30;1.20;;;25.50;45.90;;;;;;5019763;28;20361;-61
2021/07/09 09:21:11;;;;;;;1.02;0.93;;;25.50;45.90;;;;;;5033291;28;20041;-59
2021/07/09 09:23:52;;;;;;;1.40;1.30;;;25.60;46.00;;;;;;5026257;28;20041;-58
2021/07/09 09:26:45;;;;;;;1.52;1.38;;;25.50;46.00;;;;;;5022669;28;20330;-59
2021/07/09 09:29:31;;;;;;;1.23;1.10;;;25.60;46.10;;;;;;5026879;28;20401;-61
2021/07/09 09:32:03;;;;;;;1.45;1.20;;;25.60;46.20;;;;;;5020426;28;20044;-60
2021/07/09 09:34:43;;;;;;;1.73;1.25;;;25.60;46.20;;;;;;5022106;28;20034;-60
2021/07/09 09:37:11;;;;;;;1.70;1.30;;;25.60;46.20;;;;;;5017520;28;20168;-56
2021/07/09 09:39:45;;;;;;;1.23;1.10;;;25.60;46.20;;;;;;5019986;28;20124;-57
2021/07/09 09:42:21;;;;;;;1.40;1.30;;;25.60;46.30;;;;;;5024364;28;20042;-59
2021/07/09 09:45:05;;;;;;;1.50;1.40;;;25.60;46.30;;;;;;5026849;28;20302;-57
2021/07/09 09:47:33;;;;;;;1.30;1.20;;;25.60;46.20;;;;;;5029698;28;20127;-58
2021/07/09 09:50:05;;;;;;;2.42;1.42;;;25.60;46.30;;;;;;5029143;28;20459;-57
2021/07/09 09:52:38;;;;;;;2.08;1.65;;;25.60;46.40;;;;;;5017850;28;20468;-57
2021/07/09 09:55:06;;;;;;;2.00;1.80;;;25.70;46.60;;;;;;5021051;28;20128;-60
2021/07/09 09:57:32;;;;;;;2.67;1.60;;;25.70;46.70;;;;;;5023343;28;20399;-60
2021/07/09 09:59:58;;;;;;;2.25;1.90;;;25.70;47.00;;;;;;5020881;28;20037;-57
2021/07/09 10:02:24;;;;;;;2.47;2.05;;;25.70;47.20;;;;;;5024747;28;20438;-57
2021/07/09 10:04:52;;;;;;;2.00;1.80;;;25.80;47.40;;;;;;5017198;28;20029;-58
2021/07/09 10:07:19;;;;;;;2.47;1.70;;;25.80;47.60;;;;;;5017565;28;20103;-59
2021/07/09 10:09:47;;;;;;;2.88;1.70;;;25.80;47.60;;;;;;5020806;28;20318;-58
2021/07/09 10:12:17;;;;;;;2.42;2.08;;;25.80;47.60;;;;;;5032182;28;20037;-58
2021/07/09 10:14:45;;;;;;;3.72;1.85;;;25.80;47.60;;;;;;5016782;28;20088;-57
2021/07/09 10:17:16;;;;;;;2.47;1.95;;;25.80;47.60;;;;;;5014975;28;20454;-59
2021/07/09 10:19:45;;;;;;;2.10;1.90;;;25.80;47.60;;;;;;5027434;28;20045;-61
2021/07/09 10:22:12;;;;;;;2.28;1.85;;;25.80;47.60;;;;;;5026681;28;20139;-63
2021/07/09 10:24:44;;;;;;;1.85;1.75;;;25.80;47.60;;;;;;5026589;28;20108;-60
2021/07/09 10:27:11;;;;;;;2.00;1.80;;;25.80;47.60;;;;;;5018921;28;20080;-56
2021/07/09 10:29:45;;;;;;;2.25;1.92;;;25.80;47.70;;;;;;5016530;28;20030;-57
2021/07/09 10:32:12;;;;;;;3.13;1.67;;;25.80;47.70;;;;;;4996466;28;20446;-60
2021/07/09 10:34:49;;;;;;;2.03;1.83;;;25.80;47.70;;;;;;5000432;28;20076;-59
2021/07/09 10:37:19;;;;;;;2.08;1.88;;;25.80;47.70;;;;;;5013569;28;20041;-56
2021/07/09 10:39:50;;;;;;;2.72;1.70;;;25.80;47.70;;;;;;5018383;28;20029;-53
2021/07/09 10:42:22;;;;;;;2.20;1.88;;;25.80;47.70;;;;;;5023827;28;20037;-52
2021/07/09 10:45:11;;;;;;;2.05;1.73;;;25.80;47.60;;;;;;5013884;28;20488;-61
2021/07/09 10:48:02;;;;;;;2.25;1.80;;;25.80;47.70;;;;;;5022751;28;20059;-60
2021/07/09 10:50:52;;;;;;;2.45;1.67;;;25.90;47.80;;;;;;5004072;28;20045;-61
2021/07/09 10:53:19;;;;;;;2.30;1.77;;;25.90;47.70;;;;;;5021165;28;20476;-57
2021/07/09 10:55:52;;;;;;;2.92;2.17;;;25.90;47.70;;;;;;5018624;28;20368;-59
2021/07/09 10:58:22;;;;;;;1.73;1.63;;;25.90;47.50;;;;;;5014933;28;20033;-59
2021/07/09 11:01:18;;;;;;;3.25;1.77;;;25.90;47.40;;;;;;5010465;28;20135;-55
2021/07/09 11:03:49;;;;;;;1.73;1.63;;;25.90;47.20;;;;;;5022437;28;20057;-57
2021/07/09 11:06:22;;;;;;;1.63;1.52;;;25.90;47.20;;;;;;5021921;28;20112;-61
2021/07/09 11:09:06;;;;;;;2.65;1.88;;;25.90;47.00;;;;;;5022440;28;20049;-61
2021/07/09 11:11:45;;;;;;;2.30;1.98;;;25.90;46.80;;;;;;5020949;28;20112;-58
2021/07/09 11:14:36;;;;;;;1.70;1.60;;;26.00;46.90;;;;;;5018576;28;20287;-59
2021/07/09 11:17:17;;;;;;;2.17;1.90;;;26.00;46.60;;;;;;5022875;28;20049;-60
2021/07/09 11:19:42;;;;;;;1.88;1.67;;;26.00;46.40;;;;;;5019192;28;20041;-53
2021/07/09 11:22:13;;;;;;;2.42;2.17;;;26.00;46.30;;;;;;5019938;28;20389;-54
2021/07/09 11:24:53;;;;;;;3.13;2.03;;;26.00;46.20;;;;;;5028988;28;20085;-58
2021/07/09 11:27:19;;;;;;;2.50;2.10;;;26.00;46.20;;;;;;5021147;28;20111;-62
2021/07/09 11:29:47;;;;;;;2.53;1.98;;;26.00;46.30;;;;;;5017048;28;20030;-61
2021/07/09 11:32:21;;;;;;;2.22;2.03;;;26.00;46.30;;;;;;5016324;28;20050;-61
2021/07/09 11:34:55;;;;;;;2.08;1.88;;;26.10;46.40;;;;;;5014262;28;20037;-56
2021/07/09 11:37:23;;;;;;;2.20;1.80;;;26.10;46.40;;;;;;5025144;28;20041;-55
2021/07/09 11:39:52;;;;;;;1.90;1.70;;;26.20;46.40;;;;;;5034781;28;20026;-57
2021/07/09 11:42:22;;;;;;;1.95;1.75;;;26.20;46.50;;;;;;5024108;28;20053;-56
2021/07/09 11:44:56;;;;;;;2.20;1.90;;;26.20;46.40;;;;;;5033897;28;20041;-55
2021/07/09 11:47:31;;;;;;;3.03;2.20;;;26.20;46.30;;;;;;5021362;28;20359;-53
2021/07/09 11:50:05;;;;;;;2.58;2.00;;;26.30;46.30;;;;;;5005427;28;20026;-54
2021/07/09 11:52:39;;;;;;;1.85;1.75;;;26.30;46.30;;;;;;5019908;28;20167;-55
2021/07/09 11:55:14;;;;;;;1.92;1.73;;;26.30;46.30;;;;;;5027037;28;20145;-56
2021/07/09 11:57:43;;;;;;;;;;;26.40;46.30;;;;;;5015384;28;20322;-56
2021/07/09 12:00:17;;;;;;;2.05;1.85;;;26.40;46.30;;;;;;5023510;28;19909;-61
2021/07/09 12:02:45;;;;;;;2.00;1.80;;;26.50;46.40;;;;;;5034285;28;20081;-55
2021/07/09 12:05:15;;;;;;;2.10;1.90;;;26.50;46.30;;;;;;5021500;28;20117;-60
2021/07/09 12:07:52;;;;;;;2.20;2.00;;;26.50;46.20;;;;;;5021325;28;20026;-51
2021/07/09 12:10:39;;;;;;;2.97;2.03;;;26.60;46.20;;;;;;5018216;28;20030;-55
2021/07/09 12:13:06;;;;;;;1.90;1.80;;;26.60;46.20;;;;;;5014140;28;20072;-55
2021/07/09 12:15:37;;;;;;;2.30;2.03;;;26.70;46.20;;;;;;5030702;28;20596;-51
2021/07/09 12:18:06;;;;;;;3.42;2.17;;;26.70;46.20;;;;;;5008561;28;20337;-56
2021/07/09 12:20:34;;;;;;;4.15;2.35;;;26.80;46.20;;;;;;5033330;28;20060;-61
2021/07/09 12:23:10;;;;;;;2.88;2.42;;;26.80;46.20;;;;;;5020169;28;20121;-57
2021/07/09 12:25:54;;;;;;;2.20;2.00;;;26.80;46.10;;;;;;5015617;28;20352;-57
2021/07/09 12:28:22;;;;;;;3.17;2.45;;;26.80;46.00;;;;;;5028191;28;20132;-59
2021/07/09 12:30:50;;;;;;;2.60;2.40;;;26.80;46.00;;;;;;5020507;28;20056;-60
2021/07/09 12:33:33;;;;;;;3.53;2.17;;;26.90;46.00;;;;;;5007708;28;20025;-62
2021/07/09 12:36:05;;;;;;;3.85;2.00;;;26.90;45.80;;;;;;5015956;28;20514;-57
2021/07/09 12:38:39;;;;;;;2.90;2.10;;;26.90;45.70;;;;;;5020839;28;20048;-61
2021/07/09 12:41:10;;;;;;;2.60;2.35;;;26.90;45.50;;;;;;5017168;28;20050;-61
2021/07/09 12:43:48;;;;;;;2.60;2.08;;;26.90;45.30;;;;;;5023672;28;20095;-59
2021/07/09 12:46:19;;;;;;;2.40;2.20;;;26.90;45.10;;;;;;5015449;28;20049;-60
2021/07/09 12:48:47;;;;;;;2.35;2.15;;;27.00;45.00;;;;;;5021072;28;20041;-59
2021/07/09 12:51:25;;;;;;;2.35;2.15;;;27.00;44.90;;;;;;5023279;28;20018;-61
2021/07/09 12:54:20;;;;;;;2.05;1.90;;;27.00;44.70;;;;;;5030004;28;20037;-62